sensor_id;sensor_type;location;lat;lon;timestamp;P1;durP1;ratioP1;P2;durP2;ratioP2
17127;SDS011;8679;50.842;4.322;2024-01-11T00:00:16;3.13;;;2.03;;
17127;SDS011;8679;50.842;4.322;2024-01-11T00:02:44;2.07;;;1.47;;
17127;SDS011;8679;50.842;4.322;2024-01-11T00:05:10;4.40;;;2.83;;
17127;SDS011;8679;50.842;4.322;2024-01-11T00:07:35;10.17;;;4.07;;
17127;SDS011;8679;50.842;4.322;2024-01-11T00:10:02;3.27;;;2.63;;
17127;SDS011;8679;50.842;4.322;2024-01-11T00:12:28;2.47;;;1.97;;
17127;SDS011;8679;50.842;4.322;2024-01-11T00:14:54;2.70;;;2.20;;
17127;SDS011;8679;50.842;4.322;2024-01-11T00:17:20;3.80;;;1.93;;
17127;SDS011;8679;50.842;4.322;2024-01-11T00:19:45;3.43;;;2.70;;
17127;SDS011;8679;50.842;4.322;2024-01-11T00:22:11;8.40;;;3.37;;
17127;SDS011;8679;50.842;4.322;2024-01-11T00:24:37;4.93;;;2.83;;
17127;SDS011;8679;50.842;4.322;2024-01-11T00:27:02;6.07;;;3.23;;
17127;SDS011;8679;50.842;4.322;2024-01-11T00:29:28;2.63;;;2.43;;
17127;SDS011;8679;50.842;4.322;2024-01-11T00:31:54;7.67;;;2.50;;
17127;SDS011;8679;50.842;4.322;2024-01-11T00:34:20;4.40;;;2.67;;
17127;SDS011;8679;50.842;4.322;2024-01-11T00:36:46;8.47;;;3.80;;
17127;SDS011;8679;50.842;4.322;2024-01-11T00:39:12;3.23;;;2.30;;
17127;SDS011;8679;50.842;4.322;2024-01-11T00:41:38;3.10;;;2.57;;
17127;SDS011;8679;50.842;4.322;2024-01-11T00:44:04;6.47;;;3.17;;
17127;SDS011;8679;50.842;4.322;2024-01-11T00:46:30;4.07;;;2.57;;
17127;SDS011;8679;50.842;4.322;2024-01-11T00:48:55;2.40;;;1.87;;
17127;SDS011;8679;50.842;4.322;2024-01-11T00:51:21;8.13;;;3.63;;
17127;SDS011;8679;50.842;4.322;2024-01-11T00:53:47;12.23;;;3.93;;
17127;SDS011;8679;50.842;4.322;2024-01-11T00:56:17;3.77;;;2.00;;
17127;SDS011;8679;50.842;4.322;2024-01-11T00:58:43;3.17;;;2.27;;
17127;SDS011;8679;50.842;4.322;2024-01-11T01:01:09;2.67;;;2.10;;
17127;SDS011;8679;50.842;4.322;2024-01-11T01:03:35;3.90;;;2.80;;
17127;SDS011;8679;50.842;4.322;2024-01-11T01:06:01;6.00;;;3.00;;
17127;SDS011;8679;50.842;4.322;2024-01-11T01:08:27;2.50;;;1.93;;
17127;SDS011;8679;50.842;4.322;2024-01-11T01:10:53;4.20;;;1.80;;
17127;SDS011;8679;50.842;4.322;2024-01-11T01:13:19;2.10;;;1.53;;
17127;SDS011;8679;50.842;4.322;2024-01-11T01:15:45;4.77;;;2.33;;
17127;SDS011;8679;50.842;4.322;2024-01-11T01:18:11;2.00;;;1.57;;
17127;SDS011;8679;50.842;4.322;2024-01-11T01:20:37;3.67;;;2.73;;
17127;SDS011;8679;50.842;4.322;2024-01-11T01:23:02;5.23;;;2.90;;
17127;SDS011;8679;50.842;4.322;2024-01-11T01:25:28;4.17;;;3.07;;
17127;SDS011;8679;50.842;4.322;2024-01-11T01:27:54;5.57;;;2.63;;
17127;SDS011;8679;50.842;4.322;2024-01-11T01:30:20;2.93;;;2.70;;
17127;SDS011;8679;50.842;4.322;2024-01-11T01:32:47;9.03;;;4.20;;
17127;SDS011;8679;50.842;4.322;2024-01-11T01:35:12;3.13;;;2.10;;
17127;SDS011;8679;50.842;4.322;2024-01-11T01:37:38;5.00;;;3.27;;
17127;SDS011;8679;50.842;4.322;2024-01-11T01:40:05;17.97;;;2.87;;
17127;SDS011;8679;50.842;4.322;2024-01-11T01:42:32;2.80;;;1.30;;
17127;SDS011;8679;50.842;4.322;2024-01-11T01:44:58;2.53;;;1.67;;
17127;SDS011;8679;50.842;4.322;2024-01-11T01:47:24;5.13;;;2.60;;
17127;SDS011;8679;50.842;4.322;2024-01-11T01:49:51;7.27;;;3.60;;
17127;SDS011;8679;50.842;4.322;2024-01-11T01:52:19;3.33;;;2.60;;
17127;SDS011;8679;50.842;4.322;2024-01-11T01:54:47;3.57;;;1.90;;
17127;SDS011;8679;50.842;4.322;2024-01-11T01:57:14;3.17;;;1.97;;
17127;SDS011;8679;50.842;4.322;2024-01-11T01:59:43;1.80;;;1.70;;
17127;SDS011;8679;50.842;4.322;2024-01-11T02:02:11;4.87;;;1.53;;
17127;SDS011;8679;50.842;4.322;2024-01-11T02:04:37;4.03;;;2.93;;
17127;SDS011;8679;50.842;4.322;2024-01-11T02:07:03;7.67;;;4.03;;
17127;SDS011;8679;50.842;4.322;2024-01-11T02:09:31;7.37;;;2.20;;
17127;SDS011;8679;50.842;4.322;2024-01-11T02:11:58;4.27;;;3.20;;
17127;SDS011;8679;50.842;4.322;2024-01-11T02:14:25;4.33;;;3.20;;
17127;SDS011;8679;50.842;4.322;2024-01-11T02:16:51;10.53;;;1.37;;
17127;SDS011;8679;50.842;4.322;2024-01-11T02:19:18;4.07;;;3.60;;
17127;SDS011;8679;50.842;4.322;2024-01-11T02:21:44;3.37;;;2.23;;
17127;SDS011;8679;50.842;4.322;2024-01-11T02:24:11;1.33;;;1.23;;
17127;SDS011;8679;50.842;4.322;2024-01-11T02:26:44;4.47;;;2.27;;
17127;SDS011;8679;50.842;4.322;2024-01-11T02:29:24;3.33;;;2.20;;
17127;SDS011;8679;50.842;4.322;2024-01-11T02:31:50;2.60;;;1.93;;
17127;SDS011;8679;50.842;4.322;2024-01-11T02:34:16;5.43;;;2.27;;
17127;SDS011;8679;50.842;4.322;2024-01-11T02:36:42;1.60;;;1.50;;
17127;SDS011;8679;50.842;4.322;2024-01-11T02:39:08;2.03;;;1.83;;
17127;SDS011;8679;50.842;4.322;2024-01-11T02:41:35;3.27;;;2.13;;
17127;SDS011;8679;50.842;4.322;2024-01-11T02:44:02;5.53;;;2.97;;
17127;SDS011;8679;50.842;4.322;2024-01-11T02:46:28;10.30;;;4.30;;
17127;SDS011;8679;50.842;4.322;2024-01-11T02:48:55;6.10;;;2.00;;
17127;SDS011;8679;50.842;4.322;2024-01-11T02:51:21;4.83;;;2.50;;
17127;SDS011;8679;50.842;4.322;2024-01-11T02:53:46;2.93;;;2.27;;
17127;SDS011;8679;50.842;4.322;2024-01-11T02:56:12;3.80;;;1.43;;
17127;SDS011;8679;50.842;4.322;2024-01-11T02:58:38;7.00;;;3.10;;
17127;SDS011;8679;50.842;4.322;2024-01-11T03:01:03;3.80;;;1.97;;
17127;SDS011;8679;50.842;4.322;2024-01-11T03:03:29;2.77;;;2.10;;
17127;SDS011;8679;50.842;4.322;2024-01-11T03:05:55;4.83;;;3.83;;
17127;SDS011;8679;50.842;4.322;2024-01-11T03:08:20;4.30;;;1.90;;
17127;SDS011;8679;50.842;4.322;2024-01-11T03:10:46;2.23;;;2.07;;
17127;SDS011;8679;50.842;4.322;2024-01-11T03:13:12;6.00;;;3.27;;
17127;SDS011;8679;50.842;4.322;2024-01-11T03:15:38;2.23;;;2.07;;
17127;SDS011;8679;50.842;4.322;2024-01-11T03:18:04;2.93;;;1.57;;
17127;SDS011;8679;50.842;4.322;2024-01-11T03:20:29;1.77;;;1.67;;
17127;SDS011;8679;50.842;4.322;2024-01-11T03:22:56;3.77;;;2.93;;
17127;SDS011;8679;50.842;4.322;2024-01-11T03:25:22;1.57;;;1.47;;
17127;SDS011;8679;50.842;4.322;2024-01-11T03:27:48;3.17;;;2.03;;
17127;SDS011;8679;50.842;4.322;2024-01-11T03:30:13;3.70;;;1.70;;
17127;SDS011;8679;50.842;4.322;2024-01-11T03:32:39;1.97;;;1.87;;
17127;SDS011;8679;50.842;4.322;2024-01-11T03:35:09;3.57;;;2.70;;
17127;SDS011;8679;50.842;4.322;2024-01-11T03:37:35;4.37;;;2.20;;
17127;SDS011;8679;50.842;4.322;2024-01-11T03:40:03;8.13;;;5.03;;
17127;SDS011;8679;50.842;4.322;2024-01-11T03:42:30;5.60;;;2.33;;
17127;SDS011;8679;50.842;4.322;2024-01-11T03:44:55;5.03;;;2.30;;
17127;SDS011;8679;50.842;4.322;2024-01-11T03:47:21;3.10;;;2.80;;
17127;SDS011;8679;50.842;4.322;2024-01-11T03:49:47;2.63;;;1.33;;
17127;SDS011;8679;50.842;4.322;2024-01-11T03:52:13;2.83;;;1.87;;
17127;SDS011;8679;50.842;4.322;2024-01-11T03:54:39;5.47;;;1.73;;
17127;SDS011;8679;50.842;4.322;2024-01-11T03:57:08;5.10;;;2.33;;
17127;SDS011;8679;50.842;4.322;2024-01-11T03:59:35;3.97;;;1.87;;
17127;SDS011;8679;50.842;4.322;2024-01-11T04:02:00;2.40;;;1.87;;
17127;SDS011;8679;50.842;4.322;2024-01-11T04:04:26;4.40;;;2.10;;
17127;SDS011;8679;50.842;4.322;2024-01-11T04:06:52;2.23;;;2.03;;
17127;SDS011;8679;50.842;4.322;2024-01-11T04:09:18;5.50;;;2.03;;
17127;SDS011;8679;50.842;4.322;2024-01-11T04:11:45;4.47;;;2.13;;
17127;SDS011;8679;50.842;4.322;2024-01-11T04:14:12;1.73;;;1.60;;
17127;SDS011;8679;50.842;4.322;2024-01-11T04:16:41;2.40;;;2.17;;
17127;SDS011;8679;50.842;4.322;2024-01-11T04:19:08;2.23;;;1.43;;
17127;SDS011;8679;50.842;4.322;2024-01-11T04:21:35;1.57;;;1.47;;
17127;SDS011;8679;50.842;4.322;2024-01-11T04:24:04;2.03;;;1.90;;
17127;SDS011;8679;50.842;4.322;2024-01-11T04:26:33;2.17;;;1.93;;
17127;SDS011;8679;50.842;4.322;2024-01-11T04:28:58;2.40;;;2.23;;
17127;SDS011;8679;50.842;4.322;2024-01-11T04:31:25;6.53;;;1.73;;
17127;SDS011;8679;50.842;4.322;2024-01-11T04:33:51;2.63;;;2.43;;
17127;SDS011;8679;50.842;4.322;2024-01-11T04:36:17;3.83;;;2.70;;
17127;SDS011;8679;50.842;4.322;2024-01-11T04:38:42;1.80;;;1.70;;
17127;SDS011;8679;50.842;4.322;2024-01-11T04:41:09;3.97;;;0.83;;
17127;SDS011;8679;50.842;4.322;2024-01-11T04:43:39;2.80;;;1.90;;
17127;SDS011;8679;50.842;4.322;2024-01-11T04:48:41;6.43;;;2.27;;
17127;SDS011;8679;50.842;4.322;2024-01-11T04:51:07;2.67;;;2.53;;
17127;SDS011;8679;50.842;4.322;2024-01-11T04:53:36;1.50;;;1.40;;
17127;SDS011;8679;50.842;4.322;2024-01-11T04:56:03;2.77;;;1.97;;
17127;SDS011;8679;50.842;4.322;2024-01-11T04:58:29;2.47;;;2.13;;
17127;SDS011;8679;50.842;4.322;2024-01-11T05:00:54;8.27;;;2.97;;
17127;SDS011;8679;50.842;4.322;2024-01-11T05:03:21;2.43;;;2.23;;
17127;SDS011;8679;50.842;4.322;2024-01-11T05:05:46;4.80;;;2.03;;
17127;SDS011;8679;50.842;4.322;2024-01-11T05:08:12;2.00;;;1.60;;
17127;SDS011;8679;50.842;4.322;2024-01-11T05:10:38;3.07;;;2.03;;
17127;SDS011;8679;50.842;4.322;2024-01-11T05:13:05;2.43;;;2.27;;
17127;SDS011;8679;50.842;4.322;2024-01-11T05:15:31;3.87;;;2.43;;
17127;SDS011;8679;50.842;4.322;2024-01-11T05:17:56;2.30;;;1.53;;
17127;SDS011;8679;50.842;4.322;2024-01-11T05:20:23;3.20;;;1.60;;
17127;SDS011;8679;50.842;4.322;2024-01-11T05:22:48;6.43;;;3.33;;
17127;SDS011;8679;50.842;4.322;2024-01-11T05:25:14;2.27;;;1.60;;
17127;SDS011;8679;50.842;4.322;2024-01-11T05:27:40;1.83;;;1.73;;
17127;SDS011;8679;50.842;4.322;2024-01-11T05:30:06;3.70;;;2.17;;
17127;SDS011;8679;50.842;4.322;2024-01-11T05:32:32;10.10;;;3.37;;
17127;SDS011;8679;50.842;4.322;2024-01-11T05:34:58;3.73;;;2.60;;
17127;SDS011;8679;50.842;4.322;2024-01-11T05:37:23;3.67;;;2.00;;
17127;SDS011;8679;50.842;4.322;2024-01-11T05:39:49;8.63;;;2.77;;
17127;SDS011;8679;50.842;4.322;2024-01-11T05:42:15;2.37;;;2.17;;
17127;SDS011;8679;50.842;4.322;2024-01-11T05:44:40;3.43;;;2.23;;
17127;SDS011;8679;50.842;4.322;2024-01-11T05:47:06;2.87;;;2.67;;
17127;SDS011;8679;50.842;4.322;2024-01-11T05:49:32;6.17;;;2.00;;
17127;SDS011;8679;50.842;4.322;2024-01-11T05:51:58;2.13;;;1.93;;
17127;SDS011;8679;50.842;4.322;2024-01-11T05:54:23;2.20;;;1.63;;
17127;SDS011;8679;50.842;4.322;2024-01-11T05:56:50;5.87;;;3.47;;
17127;SDS011;8679;50.842;4.322;2024-01-11T05:59:21;3.47;;;1.90;;
17127;SDS011;8679;50.842;4.322;2024-01-11T06:01:47;4.97;;;2.30;;
17127;SDS011;8679;50.842;4.322;2024-01-11T06:04:12;3.73;;;3.27;;
17127;SDS011;8679;50.842;4.322;2024-01-11T06:06:39;3.33;;;2.00;;
17127;SDS011;8679;50.842;4.322;2024-01-11T06:09:06;6.07;;;4.43;;
17127;SDS011;8679;50.842;4.322;2024-01-11T06:11:32;3.83;;;2.83;;
17127;SDS011;8679;50.842;4.322;2024-01-11T06:13:58;10.43;;;3.23;;
17127;SDS011;8679;50.842;4.322;2024-01-11T06:16:25;5.03;;;2.77;;
17127;SDS011;8679;50.842;4.322;2024-01-11T06:18:51;9.10;;;2.83;;
17127;SDS011;8679;50.842;4.322;2024-01-11T06:21:16;4.70;;;2.13;;
17127;SDS011;8679;50.842;4.322;2024-01-11T06:23:45;2.57;;;1.50;;
17127;SDS011;8679;50.842;4.322;2024-01-11T06:26:11;9.67;;;3.20;;
17127;SDS011;8679;50.842;4.322;2024-01-11T06:28:37;4.00;;;2.53;;
17127;SDS011;8679;50.842;4.322;2024-01-11T06:31:02;2.63;;;2.30;;
17127;SDS011;8679;50.842;4.322;2024-01-11T06:33:28;4.93;;;3.13;;
17127;SDS011;8679;50.842;4.322;2024-01-11T06:35:54;5.70;;;3.67;;
17127;SDS011;8679;50.842;4.322;2024-01-11T06:38:21;3.10;;;2.73;;
17127;SDS011;8679;50.842;4.322;2024-01-11T06:40:47;2.40;;;1.43;;
17127;SDS011;8679;50.842;4.322;2024-01-11T06:43:14;4.33;;;3.10;;
17127;SDS011;8679;50.842;4.322;2024-01-11T06:45:42;9.47;;;3.53;;
17127;SDS011;8679;50.842;4.322;2024-01-11T06:48:08;11.67;;;4.03;;
17127;SDS011;8679;50.842;4.322;2024-01-11T06:50:36;7.00;;;1.73;;
17127;SDS011;8679;50.842;4.322;2024-01-11T06:53:01;4.20;;;2.63;;
17127;SDS011;8679;50.842;4.322;2024-01-11T06:55:27;4.77;;;3.40;;
17127;SDS011;8679;50.842;4.322;2024-01-11T06:57:53;10.33;;;5.63;;
17127;SDS011;8679;50.842;4.322;2024-01-11T07:00:19;2.53;;;2.33;;
17127;SDS011;8679;50.842;4.322;2024-01-11T07:02:46;2.83;;;2.07;;
17127;SDS011;8679;50.842;4.322;2024-01-11T07:05:12;2.23;;;2.10;;
17127;SDS011;8679;50.842;4.322;2024-01-11T07:07:38;2.07;;;1.43;;
17127;SDS011;8679;50.842;4.322;2024-01-11T07:10:04;3.47;;;3.13;;
17127;SDS011;8679;50.842;4.322;2024-01-11T07:12:30;3.23;;;2.77;;
17127;SDS011;8679;50.842;4.322;2024-01-11T07:14:57;1.77;;;1.53;;
17127;SDS011;8679;50.842;4.322;2024-01-11T07:17:23;8.87;;;2.90;;
17127;SDS011;8679;50.842;4.322;2024-01-11T07:19:48;5.17;;;3.57;;
17127;SDS011;8679;50.842;4.322;2024-01-11T07:22:14;2.30;;;1.60;;
17127;SDS011;8679;50.842;4.322;2024-01-11T07:24:40;3.40;;;2.43;;
17127;SDS011;8679;50.842;4.322;2024-01-11T07:27:06;1.97;;;1.77;;
17127;SDS011;8679;50.842;4.322;2024-01-11T07:29:33;5.53;;;2.73;;
17127;SDS011;8679;50.842;4.322;2024-01-11T07:31:59;3.30;;;3.00;;
17127;SDS011;8679;50.842;4.322;2024-01-11T07:34:26;5.30;;;2.53;;
17127;SDS011;8679;50.842;4.322;2024-01-11T07:36:52;8.60;;;3.13;;
17127;SDS011;8679;50.842;4.322;2024-01-11T07:39:18;7.17;;;3.30;;
17127;SDS011;8679;50.842;4.322;2024-01-11T07:41:44;4.47;;;1.93;;
17127;SDS011;8679;50.842;4.322;2024-01-11T07:44:10;9.20;;;3.97;;
17127;SDS011;8679;50.842;4.322;2024-01-11T07:46:36;7.60;;;4.07;;
17127;SDS011;8679;50.842;4.322;2024-01-11T07:49:03;2.30;;;2.17;;
17127;SDS011;8679;50.842;4.322;2024-01-11T07:51:29;4.17;;;2.40;;
17127;SDS011;8679;50.842;4.322;2024-01-11T07:53:55;4.43;;;2.57;;
17127;SDS011;8679;50.842;4.322;2024-01-11T07:56:21;5.77;;;3.23;;
17127;SDS011;8679;50.842;4.322;2024-01-11T07:58:47;3.27;;;2.37;;
17127;SDS011;8679;50.842;4.322;2024-01-11T08:01:14;3.00;;;2.80;;
17127;SDS011;8679;50.842;4.322;2024-01-11T08:03:41;4.07;;;3.37;;
17127;SDS011;8679;50.842;4.322;2024-01-11T08:06:09;2.57;;;1.83;;
17127;SDS011;8679;50.842;4.322;2024-01-11T08:08:36;2.73;;;2.37;;
17127;SDS011;8679;50.842;4.322;2024-01-11T08:11:04;1.87;;;1.53;;
17127;SDS011;8679;50.842;4.322;2024-01-11T08:13:30;6.30;;;3.43;;
17127;SDS011;8679;50.842;4.322;2024-01-11T08:15:56;6.60;;;4.13;;
17127;SDS011;8679;50.842;4.322;2024-01-11T08:18:22;6.47;;;2.40;;
17127;SDS011;8679;50.842;4.322;2024-01-11T08:20:49;8.47;;;2.93;;
17127;SDS011;8679;50.842;4.322;2024-01-11T08:23:14;5.50;;;2.30;;
17127;SDS011;8679;50.842;4.322;2024-01-11T08:25:41;2.00;;;1.90;;
17127;SDS011;8679;50.842;4.322;2024-01-11T08:28:07;5.33;;;2.60;;
17127;SDS011;8679;50.842;4.322;2024-01-11T08:30:32;7.57;;;2.23;;
17127;SDS011;8679;50.842;4.322;2024-01-11T08:32:58;7.40;;;4.17;;
17127;SDS011;8679;50.842;4.322;2024-01-11T08:35:23;6.07;;;2.10;;
17127;SDS011;8679;50.842;4.322;2024-01-11T08:37:49;2.20;;;2.03;;
17127;SDS011;8679;50.842;4.322;2024-01-11T08:40:15;6.13;;;3.20;;
17127;SDS011;8679;50.842;4.322;2024-01-11T08:42:41;3.53;;;2.53;;
17127;SDS011;8679;50.842;4.322;2024-01-11T08:45:07;4.03;;;1.93;;
17127;SDS011;8679;50.842;4.322;2024-01-11T08:47:34;2.57;;;2.27;;
17127;SDS011;8679;50.842;4.322;2024-01-11T08:50:00;4.20;;;3.50;;
17127;SDS011;8679;50.842;4.322;2024-01-11T08:52:26;3.17;;;2.13;;
17127;SDS011;8679;50.842;4.322;2024-01-11T08:54:52;2.73;;;1.93;;
17127;SDS011;8679;50.842;4.322;2024-01-11T08:57:17;4.10;;;2.03;;
17127;SDS011;8679;50.842;4.322;2024-01-11T08:59:43;7.50;;;3.63;;
17127;SDS011;8679;50.842;4.322;2024-01-11T09:02:09;3.90;;;2.10;;
17127;SDS011;8679;50.842;4.322;2024-01-11T09:04:36;5.33;;;2.60;;
17127;SDS011;8679;50.842;4.322;2024-01-11T09:07:01;12.50;;;3.13;;
17127;SDS011;8679;50.842;4.322;2024-01-11T09:09:27;2.13;;;2.00;;
17127;SDS011;8679;50.842;4.322;2024-01-11T09:11:53;4.43;;;3.30;;
17127;SDS011;8679;50.842;4.322;2024-01-11T09:14:18;4.10;;;2.73;;
17127;SDS011;8679;50.842;4.322;2024-01-11T09:16:44;5.57;;;3.73;;
17127;SDS011;8679;50.842;4.322;2024-01-11T09:19:11;12.17;;;5.40;;
17127;SDS011;8679;50.842;4.322;2024-01-11T09:21:37;5.87;;;3.70;;
17127;SDS011;8679;50.842;4.322;2024-01-11T09:24:02;10.50;;;3.83;;
17127;SDS011;8679;50.842;4.322;2024-01-11T09:26:28;6.90;;;4.37;;
17127;SDS011;8679;50.842;4.322;2024-01-11T09:28:54;5.73;;;2.77;;
17127;SDS011;8679;50.842;4.322;2024-01-11T09:31:20;8.77;;;4.23;;
17127;SDS011;8679;50.842;4.322;2024-01-11T09:33:45;20.10;;;4.37;;
17127;SDS011;8679;50.842;4.322;2024-01-11T09:36:15;5.93;;;2.83;;
17127;SDS011;8679;50.842;4.322;2024-01-11T09:38:41;12.07;;;2.53;;
17127;SDS011;8679;50.842;4.322;2024-01-11T09:41:07;8.07;;;3.47;;
17127;SDS011;8679;50.842;4.322;2024-01-11T09:43:34;4.23;;;2.97;;
17127;SDS011;8679;50.842;4.322;2024-01-11T09:46:03;5.77;;;4.03;;
17127;SDS011;8679;50.842;4.322;2024-01-11T09:48:32;4.13;;;3.07;;
17127;SDS011;8679;50.842;4.322;2024-01-11T09:51:04;3.57;;;3.20;;
17127;SDS011;8679;50.842;4.322;2024-01-11T09:53:36;4.93;;;3.63;;
17127;SDS011;8679;50.842;4.322;2024-01-11T09:56:05;10.03;;;2.90;;
17127;SDS011;8679;50.842;4.322;2024-01-11T09:58:34;4.77;;;3.00;;
17127;SDS011;8679;50.842;4.322;2024-01-11T10:01:04;8.33;;;4.23;;
17127;SDS011;8679;50.842;4.322;2024-01-11T10:03:35;8.47;;;3.77;;
17127;SDS011;8679;50.842;4.322;2024-01-11T10:06:01;3.83;;;2.87;;
17127;SDS011;8679;50.842;4.322;2024-01-11T10:08:28;6.53;;;3.73;;
17127;SDS011;8679;50.842;4.322;2024-01-11T10:10:55;4.40;;;3.73;;
17127;SDS011;8679;50.842;4.322;2024-01-11T10:13:27;11.47;;;4.83;;
17127;SDS011;8679;50.842;4.322;2024-01-11T10:16:10;6.27;;;3.07;;
17127;SDS011;8679;50.842;4.322;2024-01-11T10:18:40;2.67;;;2.23;;
17127;SDS011;8679;50.842;4.322;2024-01-11T10:21:06;10.20;;;3.43;;
17127;SDS011;8679;50.842;4.322;2024-01-11T10:23:36;14.70;;;3.30;;
17127;SDS011;8679;50.842;4.322;2024-01-11T10:26:03;8.83;;;4.37;;
17127;SDS011;8679;50.842;4.322;2024-01-11T10:28:29;6.47;;;4.27;;
17127;SDS011;8679;50.842;4.322;2024-01-11T10:30:55;7.03;;;3.30;;
17127;SDS011;8679;50.842;4.322;2024-01-11T10:33:21;3.33;;;3.03;;
17127;SDS011;8679;50.842;4.322;2024-01-11T10:35:48;6.20;;;3.33;;
17127;SDS011;8679;50.842;4.322;2024-01-11T10:38:14;10.17;;;3.83;;
17127;SDS011;8679;50.842;4.322;2024-01-11T10:40:41;13.93;;;4.10;;
17127;SDS011;8679;50.842;4.322;2024-01-11T10:43:11;7.97;;;4.77;;
17127;SDS011;8679;50.842;4.322;2024-01-11T10:45:38;5.30;;;3.83;;
17127;SDS011;8679;50.842;4.322;2024-01-11T10:48:06;4.80;;;2.97;;
17127;SDS011;8679;50.842;4.322;2024-01-11T10:50:37;5.77;;;3.90;;
17127;SDS011;8679;50.842;4.322;2024-01-11T10:55:39;8.57;;;5.43;;
17127;SDS011;8679;50.842;4.322;2024-01-11T10:58:07;7.07;;;4.77;;
17127;SDS011;8679;50.842;4.322;2024-01-11T11:00:35;14.60;;;4.63;;
17127;SDS011;8679;50.842;4.322;2024-01-11T11:03:03;4.50;;;3.07;;
17127;SDS011;8679;50.842;4.322;2024-01-11T11:05:31;15.17;;;5.43;;
17127;SDS011;8679;50.842;4.322;2024-01-11T11:08:00;14.43;;;5.80;;
17127;SDS011;8679;50.842;4.322;2024-01-11T11:10:27;6.83;;;3.67;;
17127;SDS011;8679;50.842;4.322;2024-01-11T11:12:54;10.37;;;4.80;;
17127;SDS011;8679;50.842;4.322;2024-01-11T11:15:22;10.83;;;5.93;;
17127;SDS011;8679;50.842;4.322;2024-01-11T11:17:49;5.43;;;2.90;;
17127;SDS011;8679;50.842;4.322;2024-01-11T11:20:15;8.90;;;5.00;;
17127;SDS011;8679;50.842;4.322;2024-01-11T11:22:41;10.73;;;4.70;;
17127;SDS011;8679;50.842;4.322;2024-01-11T11:25:08;6.27;;;3.10;;
17127;SDS011;8679;50.842;4.322;2024-01-11T11:27:35;7.43;;;4.77;;
17127;SDS011;8679;50.842;4.322;2024-01-11T11:30:02;15.27;;;6.73;;
17127;SDS011;8679;50.842;4.322;2024-01-11T11:32:38;10.17;;;5.33;;
17127;SDS011;8679;50.842;4.322;2024-01-11T11:35:08;8.17;;;3.43;;
17127;SDS011;8679;50.842;4.322;2024-01-11T11:37:37;10.27;;;4.87;;
17127;SDS011;8679;50.842;4.322;2024-01-11T11:40:04;6.80;;;3.80;;
17127;SDS011;8679;50.842;4.322;2024-01-11T11:42:33;10.73;;;5.27;;
17127;SDS011;8679;50.842;4.322;2024-01-11T11:45:00;7.60;;;4.70;;
17127;SDS011;8679;50.842;4.322;2024-01-11T11:47:34;11.50;;;5.60;;
17127;SDS011;8679;50.842;4.322;2024-01-11T11:52:39;7.93;;;4.60;;
17127;SDS011;8679;50.842;4.322;2024-01-11T11:55:08;14.67;;;4.93;;
17127;SDS011;8679;50.842;4.322;2024-01-11T11:57:35;10.30;;;6.13;;
17127;SDS011;8679;50.842;4.322;2024-01-11T12:00:02;8.03;;;4.77;;
17127;SDS011;8679;50.842;4.322;2024-01-11T12:02:31;9.90;;;5.10;;
17127;SDS011;8679;50.842;4.322;2024-01-11T12:04:58;10.83;;;5.40;;
17127;SDS011;8679;50.842;4.322;2024-01-11T12:07:23;7.73;;;4.20;;
17127;SDS011;8679;50.842;4.322;2024-01-11T12:09:50;16.53;;;5.20;;
17127;SDS011;8679;50.842;4.322;2024-01-11T12:12:17;10.80;;;5.67;;
17127;SDS011;8679;50.842;4.322;2024-01-11T12:14:45;10.63;;;5.43;;
17127;SDS011;8679;50.842;4.322;2024-01-11T12:17:14;10.00;;;5.00;;
17127;SDS011;8679;50.842;4.322;2024-01-11T12:19:41;20.67;;;5.17;;
17127;SDS011;8679;50.842;4.322;2024-01-11T12:22:07;11.00;;;6.00;;
17127;SDS011;8679;50.842;4.322;2024-01-11T12:24:33;11.63;;;4.40;;
17127;SDS011;8679;50.842;4.322;2024-01-11T12:27:02;11.70;;;4.57;;
17127;SDS011;8679;50.842;4.322;2024-01-11T12:29:28;11.43;;;4.70;;
17127;SDS011;8679;50.842;4.322;2024-01-11T12:31:55;8.57;;;5.17;;
17127;SDS011;8679;50.842;4.322;2024-01-11T12:34:25;9.00;;;4.77;;
17127;SDS011;8679;50.842;4.322;2024-01-11T12:36:52;10.50;;;4.73;;
17127;SDS011;8679;50.842;4.322;2024-01-11T12:39:19;8.03;;;5.00;;
17127;SDS011;8679;50.842;4.322;2024-01-11T12:41:48;11.20;;;5.60;;
17127;SDS011;8679;50.842;4.322;2024-01-11T12:44:17;10.63;;;4.93;;
17127;SDS011;8679;50.842;4.322;2024-01-11T12:46:44;10.23;;;4.87;;
17127;SDS011;8679;50.842;4.322;2024-01-11T12:49:09;12.40;;;6.50;;
17127;SDS011;8679;50.842;4.322;2024-01-11T12:51:35;10.13;;;5.40;;
17127;SDS011;8679;50.842;4.322;2024-01-11T12:54:01;16.63;;;5.40;;
17127;SDS011;8679;50.842;4.322;2024-01-11T12:56:29;7.47;;;4.20;;
17127;SDS011;8679;50.842;4.322;2024-01-11T12:59:05;12.93;;;6.23;;
17127;SDS011;8679;50.842;4.322;2024-01-11T13:01:31;9.70;;;4.23;;
17127;SDS011;8679;50.842;4.322;2024-01-11T13:03:57;8.77;;;3.90;;
17127;SDS011;8679;50.842;4.322;2024-01-11T13:06:23;11.10;;;5.50;;
17127;SDS011;8679;50.842;4.322;2024-01-11T13:08:50;7.13;;;3.97;;
17127;SDS011;8679;50.842;4.322;2024-01-11T13:11:17;10.30;;;4.43;;
17127;SDS011;8679;50.842;4.322;2024-01-11T13:13:44;9.80;;;4.70;;
17127;SDS011;8679;50.842;4.322;2024-01-11T13:16:11;7.80;;;4.60;;
17127;SDS011;8679;50.842;4.322;2024-01-11T13:18:39;7.27;;;4.10;;
17127;SDS011;8679;50.842;4.322;2024-01-11T13:21:05;6.87;;;4.03;;
17127;SDS011;8679;50.842;4.322;2024-01-11T13:23:34;6.70;;;3.23;;
17127;SDS011;8679;50.842;4.322;2024-01-11T13:26:02;8.50;;;3.70;;
17127;SDS011;8679;50.842;4.322;2024-01-11T13:28:29;8.60;;;4.20;;
17127;SDS011;8679;50.842;4.322;2024-01-11T13:30:55;10.17;;;3.97;;
17127;SDS011;8679;50.842;4.322;2024-01-11T13:33:22;7.97;;;4.77;;
17127;SDS011;8679;50.842;4.322;2024-01-11T13:35:48;8.10;;;3.97;;
17127;SDS011;8679;50.842;4.322;2024-01-11T13:38:14;6.73;;;4.20;;
17127;SDS011;8679;50.842;4.322;2024-01-11T13:40:41;6.43;;;4.73;;
17127;SDS011;8679;50.842;4.322;2024-01-11T13:43:08;10.40;;;4.67;;
17127;SDS011;8679;50.842;4.322;2024-01-11T13:45:34;9.77;;;4.77;;
17127;SDS011;8679;50.842;4.322;2024-01-11T13:48:01;8.90;;;4.13;;
17127;SDS011;8679;50.842;4.322;2024-01-11T13:50:28;8.37;;;4.47;;
17127;SDS011;8679;50.842;4.322;2024-01-11T13:52:53;7.93;;;3.77;;
17127;SDS011;8679;50.842;4.322;2024-01-11T13:55:19;7.03;;;4.43;;
17127;SDS011;8679;50.842;4.322;2024-01-11T13:57:46;9.67;;;4.40;;
17127;SDS011;8679;50.842;4.322;2024-01-11T14:00:13;10.50;;;4.50;;
17127;SDS011;8679;50.842;4.322;2024-01-11T14:02:39;7.23;;;4.30;;
17127;SDS011;8679;50.842;4.322;2024-01-11T14:05:10;10.33;;;4.23;;
17127;SDS011;8679;50.842;4.322;2024-01-11T14:07:39;8.97;;;3.90;;
17127;SDS011;8679;50.842;4.322;2024-01-11T14:10:05;7.87;;;4.13;;
17127;SDS011;8679;50.842;4.322;2024-01-11T14:12:33;14.07;;;4.03;;
17127;SDS011;8679;50.842;4.322;2024-01-11T14:15:05;8.33;;;4.20;;
17127;SDS011;8679;50.842;4.322;2024-01-11T14:17:32;6.63;;;3.13;;
17127;SDS011;8679;50.842;4.322;2024-01-11T14:19:59;8.23;;;3.27;;
17127;SDS011;8679;50.842;4.322;2024-01-11T14:22:26;9.67;;;4.30;;
17127;SDS011;8679;50.842;4.322;2024-01-11T14:24:51;8.10;;;3.73;;
17127;SDS011;8679;50.842;4.322;2024-01-11T14:27:17;7.23;;;3.97;;
17127;SDS011;8679;50.842;4.322;2024-01-11T14:29:44;5.60;;;3.60;;
17127;SDS011;8679;50.842;4.322;2024-01-11T14:32:10;11.10;;;4.50;;
17127;SDS011;8679;50.842;4.322;2024-01-11T14:34:36;10.97;;;4.43;;
17127;SDS011;8679;50.842;4.322;2024-01-11T14:37:02;7.63;;;3.90;;
17127;SDS011;8679;50.842;4.322;2024-01-11T14:39:27;7.07;;;3.27;;
17127;SDS011;8679;50.842;4.322;2024-01-11T14:41:53;7.50;;;4.40;;
17127;SDS011;8679;50.842;4.322;2024-01-11T14:44:18;5.87;;;2.87;;
17127;SDS011;8679;50.842;4.322;2024-01-11T14:46:44;11.20;;;5.03;;
17127;SDS011;8679;50.842;4.322;2024-01-11T14:49:10;14.23;;;5.43;;
17127;SDS011;8679;50.842;4.322;2024-01-11T14:51:35;8.37;;;4.20;;
17127;SDS011;8679;50.842;4.322;2024-01-11T14:54:02;14.30;;;3.63;;
17127;SDS011;8679;50.842;4.322;2024-01-11T14:56:29;7.37;;;4.07;;
17127;SDS011;8679;50.842;4.322;2024-01-11T14:58:55;9.47;;;4.30;;
17127;SDS011;8679;50.842;4.322;2024-01-11T15:01:21;8.67;;;4.50;;